sensor_id;sensor_type;location;lat;lon;timestamp;P1;durP1;ratioP1;P2;durP2;ratioP2
9384;SDS011;4732;49.340;10.886;2023-02-28T04:03:57;8.37;;;4.63;;
9384;SDS011;4732;49.340;10.886;2023-02-28T04:06:24;6.63;;;4.47;;
9384;SDS011;4732;49.340;10.886;2023-02-28T04:08:49;6.07;;;3.90;;
9384;SDS011;4732;49.340;10.886;2023-02-28T04:11:22;7.20;;;4.67;;
9384;SDS011;4732;49.340;10.886;2023-02-28T04:13:53;8.47;;;4.80;;
9384;SDS011;4732;49.340;10.886;2023-02-28T04:16:19;7.00;;;4.40;;
9384;SDS011;4732;49.340;10.886;2023-02-28T04:18:44;8.07;;;4.67;;
9384;SDS011;4732;49.340;10.886;2023-02-28T04:21:12;7.57;;;5.17;;
9384;SDS011;4732;49.340;10.886;2023-02-28T04:23:37;6.97;;;4.77;;
9384;SDS011;4732;49.340;10.886;2023-02-28T04:26:03;7.87;;;4.80;;
9384;SDS011;4732;49.340;10.886;2023-02-28T04:28:30;7.00;;;4.90;;
9384;SDS011;4732;49.340;10.886;2023-02-28T04:30:56;7.70;;;4.97;;
9384;SDS011;4732;49.340;10.886;2023-02-28T04:33:23;7.63;;;4.80;;
9384;SDS011;4732;49.340;10.886;2023-02-28T04:35:57;8.80;;;5.37;;
9384;SDS011;4732;49.340;10.886;2023-02-28T04:38:24;7.67;;;5.07;;
9384;SDS011;4732;49.340;10.886;2023-02-28T04:40:50;8.17;;;4.53;;
9384;SDS011;4732;49.340;10.886;2023-02-28T04:43:15;9.20;;;4.70;;
9384;SDS011;4732;49.340;10.886;2023-02-28T04:45:41;6.50;;;4.90;;
9384;SDS011;4732;49.340;10.886;2023-02-28T04:48:06;6.90;;;4.57;;
9384;SDS011;4732;49.340;10.886;2023-02-28T04:50:32;6.60;;;4.80;;
9384;SDS011;4732;49.340;10.886;2023-02-28T04:52:57;6.37;;;5.00;;
9384;SDS011;4732;49.340;10.886;2023-02-28T04:55:23;8.30;;;4.73;;
9384;SDS011;4732;49.340;10.886;2023-02-28T04:57:49;7.83;;;5.07;;
9384;SDS011;4732;49.340;10.886;2023-02-28T05:00:14;6.73;;;4.90;;
9384;SDS011;4732;49.340;10.886;2023-02-28T05:02:41;6.97;;;5.03;;
9384;SDS011;4732;49.340;10.886;2023-02-28T05:05:07;8.33;;;4.93;;
9384;SDS011;4732;49.340;10.886;2023-02-28T05:07:33;9.20;;;5.77;;
9384;SDS011;4732;49.340;10.886;2023-02-28T05:09:59;12.10;;;7.53;;
9384;SDS011;4732;49.340;10.886;2023-02-28T05:12:24;10.00;;;6.73;;
9384;SDS011;4732;49.340;10.886;2023-02-28T05:14:50;28.77;;;14.60;;
9384;SDS011;4732;49.340;10.886;2023-02-28T05:17:15;11.27;;;7.03;;
9384;SDS011;4732;49.340;10.886;2023-02-28T05:19:41;12.67;;;7.50;;
9384;SDS011;4732;49.340;10.886;2023-02-28T05:22:12;8.27;;;5.77;;
9384;SDS011;4732;49.340;10.886;2023-02-28T05:24:41;8.70;;;5.47;;
9384;SDS011;4732;49.340;10.886;2023-02-28T05:27:07;9.73;;;6.47;;
9384;SDS011;4732;49.340;10.886;2023-02-28T05:29:33;8.77;;;5.43;;
9384;SDS011;4732;49.340;10.886;2023-02-28T05:31:59;22.63;;;9.43;;
9384;SDS011;4732;49.340;10.886;2023-02-28T05:34:24;11.80;;;6.30;;
9384;SDS011;4732;49.340;10.886;2023-02-28T05:36:50;10.67;;;6.50;;
9384;SDS011;4732;49.340;10.886;2023-02-28T05:39:16;11.33;;;6.60;;
9384;SDS011;4732;49.340;10.886;2023-02-28T05:41:41;12.27;;;6.37;;
9384;SDS011;4732;49.340;10.886;2023-02-28T05:44:08;9.23;;;5.80;;
9384;SDS011;4732;49.340;10.886;2023-02-28T05:46:34;7.93;;;5.67;;
9384;SDS011;4732;49.340;10.886;2023-02-28T05:49:00;9.47;;;5.53;;
9384;SDS011;4732;49.340;10.886;2023-02-28T05:51:25;20.37;;;9.57;;
9384;SDS011;4732;49.340;10.886;2023-02-28T05:53:51;16.00;;;8.07;;
9384;SDS011;4732;49.340;10.886;2023-02-28T05:56:17;8.13;;;6.47;;
9384;SDS011;4732;49.340;10.886;2023-02-28T05:58:42;12.23;;;6.57;;
9384;SDS011;4732;49.340;10.886;2023-02-28T06:01:22;10.67;;;6.00;;
9384;SDS011;4732;49.340;10.886;2023-02-28T06:04:02;17.70;;;7.93;;
9384;SDS011;4732;49.340;10.886;2023-02-28T06:06:29;11.67;;;6.73;;
9384;SDS011;4732;49.340;10.886;2023-02-28T06:08:55;9.47;;;5.50;;
9384;SDS011;4732;49.340;10.886;2023-02-28T06:11:22;9.20;;;5.97;;
9384;SDS011;4732;49.340;10.886;2023-02-28T06:13:53;10.27;;;6.57;;
9384;SDS011;4732;49.340;10.886;2023-02-28T06:16:20;8.00;;;5.67;;
9384;SDS011;4732;49.340;10.886;2023-02-28T06:18:46;8.50;;;6.07;;
9384;SDS011;4732;49.340;10.886;2023-02-28T06:21:12;10.97;;;6.60;;
9384;SDS011;4732;49.340;10.886;2023-02-28T06:23:37;10.77;;;5.90;;
9384;SDS011;4732;49.340;10.886;2023-02-28T06:26:03;8.63;;;5.80;;
9384;SDS011;4732;49.340;10.886;2023-02-28T06:28:29;12.00;;;5.87;;
9384;SDS011;4732;49.340;10.886;2023-02-28T06:30:55;10.07;;;6.20;;
9384;SDS011;4732;49.340;10.886;2023-02-28T06:33:20;8.30;;;5.90;;
9384;SDS011;4732;49.340;10.886;2023-02-28T06:35:47;8.97;;;6.03;;
9384;SDS011;4732;49.340;10.886;2023-02-28T06:38:15;10.73;;;6.07;;
9384;SDS011;4732;49.340;10.886;2023-02-28T06:40:41;9.03;;;6.00;;
9384;SDS011;4732;49.340;10.886;2023-02-28T06:43:06;10.27;;;6.10;;
9384;SDS011;4732;49.340;10.886;2023-02-28T06:45:32;10.03;;;6.73;;
9384;SDS011;4732;49.340;10.886;2023-02-28T06:47:57;9.03;;;5.87;;
9384;SDS011;4732;49.340;10.886;2023-02-28T06:50:25;8.60;;;5.63;;
9384;SDS011;4732;49.340;10.886;2023-02-28T06:52:50;9.10;;;6.00;;
9384;SDS011;4732;49.340;10.886;2023-02-28T06:55:18;9.80;;;6.37;;
9384;SDS011;4732;49.340;10.886;2023-02-28T06:57:44;11.87;;;6.50;;
9384;SDS011;4732;49.340;10.886;2023-02-28T07:00:10;10.20;;;6.60;;
9384;SDS011;4732;49.340;10.886;2023-02-28T07:02:36;8.53;;;6.20;;
9384;SDS011;4732;49.340;10.886;2023-02-28T07:05:03;11.40;;;7.03;;
9384;SDS011;4732;49.340;10.886;2023-02-28T07:07:29;9.77;;;6.40;;
9384;SDS011;4732;49.340;10.886;2023-02-28T07:09:55;8.50;;;5.80;;
9384;SDS011;4732;49.340;10.886;2023-02-28T07:12:21;8.73;;;6.23;;
9384;SDS011;4732;49.340;10.886;2023-02-28T07:14:47;8.90;;;5.57;;
9384;SDS011;4732;49.340;10.886;2023-02-28T07:17:12;10.17;;;6.43;;
9384;SDS011;4732;49.340;10.886;2023-02-28T07:19:38;9.50;;;6.00;;
9384;SDS011;4732;49.340;10.886;2023-02-28T07:22:04;10.10;;;6.33;;
9384;SDS011;4732;49.340;10.886;2023-02-28T07:24:30;9.70;;;6.10;;
9384;SDS011;4732;49.340;10.886;2023-02-28T07:26:56;8.90;;;6.30;;
9384;SDS011;4732;49.340;10.886;2023-02-28T07:29:22;9.67;;;6.63;;
9384;SDS011;4732;49.340;10.886;2023-02-28T07:31:47;8.23;;;6.40;;
9384;SDS011;4732;49.340;10.886;2023-02-28T07:34:15;9.57;;;6.73;;
9384;SDS011;4732;49.340;10.886;2023-02-28T07:36:40;8.30;;;5.73;;
9384;SDS011;4732;49.340;10.886;2023-02-28T07:39:06;8.33;;;6.03;;
9384;SDS011;4732;49.340;10.886;2023-02-28T07:41:34;9.07;;;6.20;;
9384;SDS011;4732;49.340;10.886;2023-02-28T07:44:15;8.63;;;6.00;;
9384;SDS011;4732;49.340;10.886;2023-02-28T07:47:13;11.40;;;5.90;;
9384;SDS011;4732;49.340;10.886;2023-02-28T07:49:51;11.73;;;6.50;;
9384;SDS011;4732;49.340;10.886;2023-02-28T07:52:17;12.30;;;6.20;;
9384;SDS011;4732;49.340;10.886;2023-02-28T07:54:46;9.50;;;6.70;;
9384;SDS011;4732;49.340;10.886;2023-02-28T07:57:18;8.67;;;6.00;;
9384;SDS011;4732;49.340;10.886;2023-02-28T07:59:46;13.50;;;5.80;;
9384;SDS011;4732;49.340;10.886;2023-02-28T08:05:26;11.47;;;6.87;;
9384;SDS011;4732;49.340;10.886;2023-02-28T08:08:07;9.90;;;6.47;;
9384;SDS011;4732;49.340;10.886;2023-02-28T08:10:33;9.73;;;6.83;;
9384;SDS011;4732;49.340;10.886;2023-02-28T08:15:55;10.40;;;6.40;;
9384;SDS011;4732;49.340;10.886;2023-02-28T08:18:21;9.50;;;6.70;;
9384;SDS011;4732;49.340;10.886;2023-02-28T08:20:47;9.93;;;6.70;;
9384;SDS011;4732;49.340;10.886;2023-02-28T08:23:13;11.47;;;7.23;;
9384;SDS011;4732;49.340;10.886;2023-02-28T08:25:39;9.90;;;6.70;;
9384;SDS011;4732;49.340;10.886;2023-02-28T08:28:04;10.13;;;6.93;;
9384;SDS011;4732;49.340;10.886;2023-02-28T08:30:30;10.70;;;7.03;;
9384;SDS011;4732;49.340;10.886;2023-02-28T08:32:56;11.10;;;6.80;;
9384;SDS011;4732;49.340;10.886;2023-02-28T08:35:21;12.50;;;7.07;;
9384;SDS011;4732;49.340;10.886;2023-02-28T08:37:48;11.00;;;7.27;;
9384;SDS011;4732;49.340;10.886;2023-02-28T08:40:14;10.90;;;7.30;;
9384;SDS011;4732;49.340;10.886;2023-02-28T08:42:43;10.17;;;7.40;;
9384;SDS011;4732;49.340;10.886;2023-02-28T08:45:10;9.73;;;7.43;;
9384;SDS011;4732;49.340;10.886;2023-02-28T08:47:36;11.80;;;7.13;;
9384;SDS011;4732;49.340;10.886;2023-02-28T08:50:05;11.97;;;7.40;;
9384;SDS011;4732;49.340;10.886;2023-02-28T08:52:31;9.70;;;7.30;;
9384;SDS011;4732;49.340;10.886;2023-02-28T08:54:57;9.20;;;6.77;;
9384;SDS011;4732;49.340;10.886;2023-02-28T08:57:23;11.30;;;7.27;;
9384;SDS011;4732;49.340;10.886;2023-02-28T08:59:51;11.50;;;7.70;;
9384;SDS011;4732;49.340;10.886;2023-02-28T09:02:17;9.70;;;6.73;;
9384;SDS011;4732;49.340;10.886;2023-02-28T09:04:42;12.57;;;8.00;;
9384;SDS011;4732;49.340;10.886;2023-02-28T09:07:10;13.20;;;7.77;;
9384;SDS011;4732;49.340;10.886;2023-02-28T09:09:36;10.87;;;7.40;;
9384;SDS011;4732;49.340;10.886;2023-02-28T09:12:02;10.73;;;7.77;;
9384;SDS011;4732;49.340;10.886;2023-02-28T09:14:27;12.53;;;7.93;;
9384;SDS011;4732;49.340;10.886;2023-02-28T09:16:53;10.60;;;7.47;;
9384;SDS011;4732;49.340;10.886;2023-02-28T09:19:19;10.00;;;6.87;;
9384;SDS011;4732;49.340;10.886;2023-02-28T09:21:45;9.77;;;7.10;;
9384;SDS011;4732;49.340;10.886;2023-02-28T09:24:11;11.03;;;7.17;;
9384;SDS011;4732;49.340;10.886;2023-02-28T09:26:39;9.80;;;6.80;;
9384;SDS011;4732;49.340;10.886;2023-02-28T09:29:05;9.63;;;6.43;;
9384;SDS011;4732;49.340;10.886;2023-02-28T09:31:31;13.33;;;7.80;;
9384;SDS011;4732;49.340;10.886;2023-02-28T09:33:57;10.80;;;7.87;;
9384;SDS011;4732;49.340;10.886;2023-02-28T09:36:24;11.33;;;7.70;;
9384;SDS011;4732;49.340;10.886;2023-02-28T09:38:51;9.67;;;7.37;;
9384;SDS011;4732;49.340;10.886;2023-02-28T09:41:24;11.13;;;7.20;;
9384;SDS011;4732;49.340;10.886;2023-02-28T09:43:56;12.60;;;6.70;;
9384;SDS011;4732;49.340;10.886;2023-02-28T09:46:38;12.40;;;7.77;;
9384;SDS011;4732;49.340;10.886;2023-02-28T09:49:10;11.40;;;7.63;;
9384;SDS011;4732;49.340;10.886;2023-02-28T09:51:50;11.50;;;7.77;;
9384;SDS011;4732;49.340;10.886;2023-02-28T09:54:31;11.70;;;8.00;;
9384;SDS011;4732;49.340;10.886;2023-02-28T09:56:59;11.47;;;7.93;;
9384;SDS011;4732;49.340;10.886;2023-02-28T09:59:39;12.50;;;7.60;;
9384;SDS011;4732;49.340;10.886;2023-02-28T10:05:02;10.13;;;7.07;;
9384;SDS011;4732;49.340;10.886;2023-02-28T10:10:20;13.03;;;7.67;;
9384;SDS011;4732;49.340;10.886;2023-02-28T10:12:49;9.83;;;8.37;;
9384;SDS011;4732;49.340;10.886;2023-02-28T10:15:18;11.23;;;7.50;;
9384;SDS011;4732;49.340;10.886;2023-02-28T10:17:48;10.03;;;6.80;;
9384;SDS011;4732;49.340;10.886;2023-02-28T10:20:20;9.13;;;7.07;;
9384;SDS011;4732;49.340;10.886;2023-02-28T10:25:27;9.90;;;7.20;;
9384;SDS011;4732;49.340;10.886;2023-02-28T10:27:57;9.07;;;6.20;;
9384;SDS011;4732;49.340;10.886;2023-02-28T10:30:40;13.47;;;7.50;;
9384;SDS011;4732;49.340;10.886;2023-02-28T10:33:14;10.37;;;7.07;;
9384;SDS011;4732;49.340;10.886;2023-02-28T10:35:44;8.47;;;6.80;;
9384;SDS011;4732;49.340;10.886;2023-02-28T10:38:14;9.30;;;7.17;;
9384;SDS011;4732;49.340;10.886;2023-02-28T10:40:51;10.67;;;7.23;;
9384;SDS011;4732;49.340;10.886;2023-02-28T10:43:27;11.17;;;7.57;;
9384;SDS011;4732;49.340;10.886;2023-02-28T10:45:57;9.30;;;7.43;;
9384;SDS011;4732;49.340;10.886;2023-02-28T10:50:55;13.10;;;6.90;;
9384;SDS011;4732;49.340;10.886;2023-02-28T10:58:25;9.20;;;7.17;;
9384;SDS011;4732;49.340;10.886;2023-02-28T11:00:53;9.73;;;6.73;;
9384;SDS011;4732;49.340;10.886;2023-02-28T11:03:24;10.30;;;6.87;;
9384;SDS011;4732;49.340;10.886;2023-02-28T11:05:53;10.47;;;7.60;;
9384;SDS011;4732;49.340;10.886;2023-02-28T11:08:19;9.53;;;7.07;;
9384;SDS011;4732;49.340;10.886;2023-02-28T11:10:55;10.83;;;7.60;;
9384;SDS011;4732;49.340;10.886;2023-02-28T11:13:32;10.10;;;6.23;;
9384;SDS011;4732;49.340;10.886;2023-02-28T11:16:01;10.27;;;7.00;;
9384;SDS011;4732;49.340;10.886;2023-02-28T11:18:40;11.53;;;7.40;;
9384;SDS011;4732;49.340;10.886;2023-02-28T11:21:08;10.70;;;6.77;;
9384;SDS011;4732;49.340;10.886;2023-02-28T11:23:42;9.93;;;7.70;;
9384;SDS011;4732;49.340;10.886;2023-02-28T11:26:08;8.97;;;6.73;;
9384;SDS011;4732;49.340;10.886;2023-02-28T11:28:38;10.40;;;7.30;;
9384;SDS011;4732;49.340;10.886;2023-02-28T11:33:31;13.13;;;7.50;;
9384;SDS011;4732;49.340;10.886;2023-02-28T11:36:11;9.83;;;6.87;;
9384;SDS011;4732;49.340;10.886;2023-02-28T11:38:54;10.27;;;7.23;;
9384;SDS011;4732;49.340;10.886;2023-02-28T11:44:19;11.53;;;7.43;;
9384;SDS011;4732;49.340;10.886;2023-02-28T11:47:07;12.00;;;7.63;;
9384;SDS011;4732;49.340;10.886;2023-02-28T11:52:47;19.10;;;8.07;;
9384;SDS011;4732;49.340;10.886;2023-02-28T11:55:31;9.90;;;7.30;;
9384;SDS011;4732;49.340;10.886;2023-02-28T12:01:18;10.57;;;7.10;;
9384;SDS011;4732;49.340;10.886;2023-02-28T12:04:14;12.43;;;7.50;;
9384;SDS011;4732;49.340;10.886;2023-02-28T12:06:55;8.87;;;7.10;;
9384;SDS011;4732;49.340;10.886;2023-02-28T12:09:49;9.13;;;6.50;;
9384;SDS011;4732;49.340;10.886;2023-02-28T12:20:59;11.97;;;7.57;;
9384;SDS011;4732;49.340;10.886;2023-02-28T12:26:27;10.57;;;7.00;;
9384;SDS011;4732;49.340;10.886;2023-02-28T12:29:04;10.57;;;6.83;;
9384;SDS011;4732;49.340;10.886;2023-02-28T12:31:41;9.77;;;7.17;;
9384;SDS011;4732;49.340;10.886;2023-02-28T12:34:15;10.97;;;7.30;;
9384;SDS011;4732;49.340;10.886;2023-02-28T12:36:45;10.23;;;7.60;;
9384;SDS011;4732;49.340;10.886;2023-02-28T12:39:18;10.83;;;7.70;;
9384;SDS011;4732;49.340;10.886;2023-02-28T12:41:52;8.80;;;6.80;;
9384;SDS011;4732;49.340;10.886;2023-02-28T12:44:35;9.97;;;7.13;;
9384;SDS011;4732;49.340;10.886;2023-02-28T12:47:09;9.27;;;6.80;;
9384;SDS011;4732;49.340;10.886;2023-02-28T12:52:11;9.83;;;6.87;;
9384;SDS011;4732;49.340;10.886;2023-02-28T12:54:46;11.30;;;6.87;;
9384;SDS011;4732;49.340;10.886;2023-02-28T13:00:14;8.53;;;7.00;;
9384;SDS011;4732;49.340;10.886;2023-02-28T13:10:48;10.07;;;7.30;;
9384;SDS011;4732;49.340;10.886;2023-02-28T13:13:22;9.80;;;7.13;;
9384;SDS011;4732;49.340;10.886;2023-02-28T13:15:58;10.43;;;7.27;;
9384;SDS011;4732;49.340;10.886;2023-02-28T13:18:45;12.97;;;8.10;;
9384;SDS011;4732;49.340;10.886;2023-02-28T13:21:24;8.63;;;6.87;;
9384;SDS011;4732;49.340;10.886;2023-02-28T13:26:22;9.53;;;7.43;;
9384;SDS011;4732;49.340;10.886;2023-02-28T13:34:30;9.23;;;7.03;;
9384;SDS011;4732;49.340;10.886;2023-02-28T13:39:52;8.90;;;7.13;;
9384;SDS011;4732;49.340;10.886;2023-02-28T13:42:23;11.73;;;7.37;;
9384;SDS011;4732;49.340;10.886;2023-02-28T13:47:28;8.93;;;7.03;;
9384;SDS011;4732;49.340;10.886;2023-02-28T13:49:53;11.87;;;6.73;;
9384;SDS011;4732;49.340;10.886;2023-02-28T13:52:42;8.93;;;6.83;;
9384;SDS011;4732;49.340;10.886;2023-02-28T13:55:21;8.73;;;6.67;;
9384;SDS011;4732;49.340;10.886;2023-02-28T14:06:13;9.97;;;7.07;;
9384;SDS011;4732;49.340;10.886;2023-02-28T14:11:41;7.93;;;6.30;;
9384;SDS011;4732;49.340;10.886;2023-02-28T14:14:08;9.17;;;7.20;;
9384;SDS011;4732;49.340;10.886;2023-02-28T14:16:54;9.47;;;6.77;;
9384;SDS011;4732;49.340;10.886;2023-02-28T14:19:24;9.43;;;6.93;;
9384;SDS011;4732;49.340;10.886;2023-02-28T14:35:38;9.40;;;6.87;;
9384;SDS011;4732;49.340;10.886;2023-02-28T14:38:25;9.40;;;7.30;;
9384;SDS011;4732;49.340;10.886;2023-02-28T14:41:06;9.80;;;7.37;;
9384;SDS011;4732;49.340;10.886;2023-02-28T14:43:47;10.10;;;7.67;;
9384;SDS011;4732;49.340;10.886;2023-02-28T14:46:18;11.43;;;7.53;;
9384;SDS011;4732;49.340;10.886;2023-02-28T14:48:45;10.80;;;7.63;;
9384;SDS011;4732;49.340;10.886;2023-02-28T14:51:17;10.13;;;7.67;;
9384;SDS011;4732;49.340;10.886;2023-02-28T14:53:46;10.90;;;7.47;;
9384;SDS011;4732;49.340;10.886;2023-02-28T14:56:20;10.10;;;7.53;;
9384;SDS011;4732;49.340;10.886;2023-02-28T14:58:51;10.00;;;7.43;;
9384;SDS011;4732;49.340;10.886;2023-02-28T15:01:20;9.53;;;7.47;;
9384;SDS011;4732;49.340;10.886;2023-02-28T15:03:47;10.60;;;7.77;;
9384;SDS011;4732;49.340;10.886;2023-02-28T15:06:21;9.43;;;7.57;;
9384;SDS011;4732;49.340;10.886;2023-02-28T15:08:48;8.77;;;7.53;;
9384;SDS011;4732;49.340;10.886;2023-02-28T15:11:31;12.53;;;8.33;;
9384;SDS011;4732;49.340;10.886;2023-02-28T15:13:57;13.67;;;7.93;;
9384;SDS011;4732;49.340;10.886;2023-02-28T15:16:28;10.53;;;8.00;;
9384;SDS011;4732;49.340;10.886;2023-02-28T15:21:34;16.37;;;8.93;;
9384;SDS011;4732;49.340;10.886;2023-02-28T15:24:21;12.60;;;7.97;;
9384;SDS011;4732;49.340;10.886;2023-02-28T15:26:57;11.90;;;7.40;;
9384;SDS011;4732;49.340;10.886;2023-02-28T15:29:25;10.37;;;7.10;;
9384;SDS011;4732;49.340;10.886;2023-02-28T15:32:00;10.73;;;7.07;;
9384;SDS011;4732;49.340;10.886;2023-02-28T15:34:37;14.67;;;7.67;;
9384;SDS011;4732;49.340;10.886;2023-02-28T15:39:49;9.83;;;7.40;;
9384;SDS011;4732;49.340;10.886;2023-02-28T15:42:19;10.43;;;7.17;;
9384;SDS011;4732;49.340;10.886;2023-02-28T15:44:46;11.57;;;7.70;;
9384;SDS011;4732;49.340;10.886;2023-02-28T15:47:19;11.83;;;8.00;;
9384;SDS011;4732;49.340;10.886;2023-02-28T15:49:54;11.40;;;8.70;;
9384;SDS011;4732;49.340;10.886;2023-02-28T15:52:39;11.47;;;7.97;;
9384;SDS011;4732;49.340;10.886;2023-02-28T15:55:29;14.03;;;8.77;;
9384;SDS011;4732;49.340;10.886;2023-02-28T15:57:55;11.23;;;7.97;;
9384;SDS011;4732;49.340;10.886;2023-02-28T16:00:25;11.73;;;7.80;;
9384;SDS011;4732;49.340;10.886;2023-02-28T16:02:52;12.97;;;7.53;;
9384;SDS011;4732;49.340;10.886;2023-02-28T16:05:27;9.20;;;6.97;;
9384;SDS011;4732;49.340;10.886;2023-02-28T16:08:00;11.40;;;6.97;;
9384;SDS011;4732;49.340;10.886;2023-02-28T16:10:36;10.20;;;7.47;;
9384;SDS011;4732;49.340;10.886;2023-02-28T16:13:01;9.37;;;6.97;;
9384;SDS011;4732;49.340;10.886;2023-02-28T16:15:28;9.87;;;7.57;;
9384;SDS011;4732;49.340;10.886;2023-02-28T16:17:56;12.73;;;7.93;;
9384;SDS011;4732;49.340;10.886;2023-02-28T16:20:23;11.63;;;7.63;;
9384;SDS011;4732;49.340;10.886;2023-02-28T16:22:51;11.30;;;7.90;;
9384;SDS011;4732;49.340;10.886;2023-02-28T16:25:18;10.13;;;7.73;;
9384;SDS011;4732;49.340;10.886;2023-02-28T16:27:49;10.43;;;7.57;;
9384;SDS011;4732;49.340;10.886;2023-02-28T16:30:19;11.27;;;8.47;;
9384;SDS011;4732;49.340;10.886;2023-02-28T16:32:48;10.53;;;8.07;;
9384;SDS011;4732;49.340;10.886;2023-02-28T16:35:15;12.27;;;7.87;;
9384;SDS011;4732;49.340;10.886;2023-02-28T16:37:41;11.43;;;8.13;;
9384;SDS011;4732;49.340;10.886;2023-02-28T16:40:09;10.67;;;7.47;;
9384;SDS011;4732;49.340;10.886;2023-02-28T16:42:45;10.80;;;8.00;;
9384;SDS011;4732;49.340;10.886;2023-02-28T16:45:16;10.87;;;7.97;;
9384;SDS011;4732;49.340;10.886;2023-02-28T16:47:44;10.90;;;7.23;;
9384;SDS011;4732;49.340;10.886;2023-02-28T16:50:20;11.50;;;7.73;;
9384;SDS011;4732;49.340;10.886;2023-02-28T16:52:53;12.20;;;7.47;;
9384;SDS011;4732;49.340;10.886;2023-02-28T16:55:19;12.40;;;7.57;;
9384;SDS011;4732;49.340;10.886;2023-02-28T16:57:56;10.63;;;7.43;;
9384;SDS011;4732;49.340;10.886;2023-02-28T17:00:24;11.30;;;7.97;;
9384;SDS011;4732;49.340;10.886;2023-02-28T17:02:51;11.63;;;7.30;;
9384;SDS011;4732;49.340;10.886;2023-02-28T17:05:17;8.43;;;6.93;;
9384;SDS011;4732;49.340;10.886;2023-02-28T17:07:44;12.93;;;8.00;;
9384;SDS011;4732;49.340;10.886;2023-02-28T17:10:17;11.50;;;7.83;;
9384;SDS011;4732;49.340;10.886;2023-02-28T17:12:47;11.73;;;8.40;;
9384;SDS011;4732;49.340;10.886;2023-02-28T17:15:14;13.87;;;10.27;;
9384;SDS011;4732;49.340;10.886;2023-02-28T17:17:41;17.33;;;13.00;;
9384;SDS011;4732;49.340;10.886;2023-02-28T17:20:12;13.07;;;9.37;;
9384;SDS011;4732;49.340;10.886;2023-02-28T17:22:38;19.77;;;12.47;;
9384;SDS011;4732;49.340;10.886;2023-02-28T17:25:04;11.07;;;8.50;;
9384;SDS011;4732;49.340;10.886;2023-02-28T17:27:30;12.13;;;9.43;;
9384;SDS011;4732;49.340;10.886;2023-02-28T17:29:56;15.77;;;11.90;;
9384;SDS011;4732;49.340;10.886;2023-02-28T17:32:22;12.20;;;9.47;;
9384;SDS011;4732;49.340;10.886;2023-02-28T17:34:48;20.87;;;12.50;;
9384;SDS011;4732;49.340;10.886;2023-02-28T17:37:14;16.50;;;11.50;;
9384;SDS011;4732;49.340;10.886;2023-02-28T17:39:40;16.13;;;11.50;;
9384;SDS011;4732;49.340;10.886;2023-02-28T17:42:05;15.53;;;10.70;;
9384;SDS011;4732;49.340;10.886;2023-02-28T17:44:31;14.63;;;10.70;;
9384;SDS011;4732;49.340;10.886;2023-02-28T17:46:57;13.20;;;9.73;;
9384;SDS011;4732;49.340;10.886;2023-02-28T17:49:24;13.93;;;10.30;;
9384;SDS011;4732;49.340;10.886;2023-02-28T17:51:50;14.13;;;9.90;;
9384;SDS011;4732;49.340;10.886;2023-02-28T17:54:16;17.87;;;10.93;;
9384;SDS011;4732;49.340;10.886;2023-02-28T17:56:42;13.97;;;8.80;;
9384;SDS011;4732;49.340;10.886;2023-02-28T17:59:11;13.67;;;8.73;;
9384;SDS011;4732;49.340;10.886;2023-02-28T18:01:37;10.90;;;8.13;;
9384;SDS011;4732;49.340;10.886;2023-02-28T18:04:06;11.70;;;8.83;;
9384;SDS011;4732;49.340;10.886;2023-02-28T18:06:48;12.50;;;8.27;;
9384;SDS011;4732;49.340;10.886;2023-02-28T18:09:16;14.37;;;9.23;;
9384;SDS011;4732;49.340;10.886;2023-02-28T18:11:43;13.73;;;9.83;;
9384;SDS011;4732;49.340;10.886;2023-02-28T18:14:15;12.73;;;8.83;;
9384;SDS011;4732;49.340;10.886;2023-02-28T18:16:42;14.40;;;9.93;;
9384;SDS011;4732;49.340;10.886;2023-02-28T18:19:09;13.47;;;9.13;;
9384;SDS011;4732;49.340;10.886;2023-02-28T18:21:45;12.30;;;8.73;;
9384;SDS011;4732;49.340;10.886;2023-02-28T18:24:13;13.43;;;9.90;;
9384;SDS011;4732;49.340;10.886;2023-02-28T18:26:40;13.70;;;9.70;;
9384;SDS011;4732;49.340;10.886;2023-02-28T18:29:06;13.60;;;8.50;;
9384;SDS011;4732;49.340;10.886;2023-02-28T18:31:33;14.43;;;9.47;;
9384;SDS011;4732;49.340;10.886;2023-02-28T18:33:59;14.90;;;9.20;;
9384;SDS011;4732;49.340;10.886;2023-02-28T18:36:25;13.57;;;9.87;;
9384;SDS011;4732;49.340;10.886;2023-02-28T18:38:52;11.60;;;8.80;;
9384;SDS011;4732;49.340;10.886;2023-02-28T18:41:18;14.10;;;9.67;;
9384;SDS011;4732;49.340;10.886;2023-02-28T18:43:45;14.67;;;9.27;;
9384;SDS011;4732;49.340;10.886;2023-02-28T18:46:12;12.97;;;10.07;;
9384;SDS011;4732;49.340;10.886;2023-02-28T18:48:40;12.60;;;8.67;;
9384;SDS011;4732;49.340;10.886;2023-02-28T18:51:09;11.37;;;8.77;;
9384;SDS011;4732;49.340;10.886;2023-02-28T18:53:37;13.73;;;9.50;;
9384;SDS011;4732;49.340;10.886;2023-02-28T18:56:04;15.80;;;9.67;;
9384;SDS011;4732;49.340;10.886;2023-02-28T18:58:31;12.87;;;8.83;;
9384;SDS011;4732;49.340;10.886;2023-02-28T19:00:58;11.73;;;8.73;;
9384;SDS011;4732;49.340;10.886;2023-02-28T19:03:27;11.37;;;8.40;;
9384;SDS011;4732;49.340;10.886;2023-02-28T19:05:54;11.17;;;8.33;;
9384;SDS011;4732;49.340;10.886;2023-02-28T19:08:23;12.63;;;8.23;;
9384;SDS011;4732;49.340;10.886;2023-02-28T19:10:50;10.40;;;8.10;;
9384;SDS011;4732;49.340;10.886;2023-02-28T19:13:15;11.13;;;7.90;;
9384;SDS011;4732;49.340;10.886;2023-02-28T19:15:42;13.20;;;8.53;;
9384;SDS011;4732;49.340;10.886;2023-02-28T19:18:08;12.43;;;8.13;;
9384;SDS011;4732;49.340;10.886;2023-02-28T19:20:34;12.13;;;8.60;;
9384;SDS011;4732;49.340;10.886;2023-02-28T19:23:00;13.23;;;7.90;;
9384;SDS011;4732;49.340;10.886;2023-02-28T19:25:27;15.87;;;8.60;;
9384;SDS011;4732;49.340;10.886;2023-02-28T19:27:53;10.27;;;7.87;;
9384;SDS011;4732;49.340;10.886;2023-02-28T19:30:24;12.93;;;7.80;;
9384;SDS011;4732;49.340;10.886;2023-02-28T19:32:50;13.43;;;7.80;;
9384;SDS011;4732;49.340;10.886;2023-02-28T19:35:16;14.53;;;8.03;;
9384;SDS011;4732;49.340;10.886;2023-02-28T19:37:41;12.93;;;7.87;;
9384;SDS011;4732;49.340;10.886;2023-02-28T19:40:07;13.87;;;8.90;;
9384;SDS011;4732;49.340;10.886;2023-02-28T19:42:35;13.90;;;9.37;;
9384;SDS011;4732;49.340;10.886;2023-02-28T19:45:00;14.90;;;9.83;;
9384;SDS011;4732;49.340;10.886;2023-02-28T19:47:27;11.83;;;8.23;;
9384;SDS011;4732;49.340;10.886;2023-02-28T19:49:54;13.73;;;8.60;;
9384;SDS011;4732;49.340;10.886;2023-02-28T19:52:21;14.90;;;9.93;;
9384;SDS011;4732;49.340;10.886;2023-02-28T19:54:49;14.73;;;9.90;;
9384;SDS011;4732;49.340;10.886;2023-02-28T19:57:16;14.93;;;10.23;;
9384;SDS011;4732;49.340;10.886;2023-02-28T19:59:43;13.87;;;9.63;;
9384;SDS011;4732;49.340;10.886;2023-02-28T20:02:14;13.43;;;9.30;;
9384;SDS011;4732;49.340;10.886;2023-02-28T20:04:46;17.30;;;11.40;;
9384;SDS011;4732;49.340;10.886;2023-02-28T20:07:16;16.27;;;11.27;;
9384;SDS011;4732;49.340;10.886;2023-02-28T20:09:44;16.67;;;10.47;;
9384;SDS011;4732;49.340;10.886;2023-02-28T20:12:15;16.10;;;10.50;;
9384;SDS011;4732;49.340;10.886;2023-02-28T20:14:41;15.63;;;10.80;;
9384;SDS011;4732;49.340;10.886;2023-02-28T20:17:08;15.47;;;10.27;;
9384;SDS011;4732;49.340;10.886;2023-02-28T20:19:34;17.63;;;10.80;;
9384;SDS011;4732;49.340;10.886;2023-02-28T20:22:00;17.23;;;11.00;;
9384;SDS011;4732;49.340;10.886;2023-02-28T20:24:27;14.03;;;9.87;;
9384;SDS011;4732;49.340;10.886;2023-02-28T20:26:54;17.73;;;11.77;;
9384;SDS011;4732;49.340;10.886;2023-02-28T20:29:21;16.20;;;11.13;;
9384;SDS011;4732;49.340;10.886;2023-02-28T20:31:48;19.07;;;11.33;;
9384;SDS011;4732;49.340;10.886;2023-02-28T20:34:14;19.57;;;11.77;;
9384;SDS011;4732;49.340;10.886;2023-02-28T20:36:42;19.13;;;11.90;;
9384;SDS011;4732;49.340;10.886;2023-02-28T20:39:09;20.27;;;13.17;;
9384;SDS011;4732;49.340;10.886;2023-02-28T20:41:35;18.60;;;10.80;;
9384;SDS011;4732;49.340;10.886;2023-02-28T20:44:01;20.50;;;11.73;;
9384;SDS011;4732;49.340;10.886;2023-02-28T20:46:28;15.77;;;10.67;;
9384;SDS011;4732;49.340;10.886;2023-02-28T20:48:55;19.50;;;12.20;;